Time;durP1;ratioP1;P1;durP2;ratioP2;P2;SDS_P1;SDS_P2;PMS_P1;PMS_P2;Temp;Humidity;BMP_temperature;BMP_pressure;BME280_temperature;BME280_humidity;BME280_pressure;Samples;Min_cycle;Max_cycle;Signal;HPM_P1;HPM_P2
2022/10/18 00:00:21;;;;;;;9.43;7.50;;;;;;;;;;741529;186;922995;-65
2022/10/18 00:02:47;;;;;;;11.30;8.55;;;;;;;;;;741611;187;919085;-65
2022/10/18 00:05:13;;;;;;;12.80;8.37;;;;;;;;;;745649;187;919251;-60
2022/10/18 00:07:39;;;;;;;12.30;7.50;;;;;;;;;;741170;186;917085;-65
2022/10/18 00:10:05;;;;;;;16.67;8.93;;;;;;;;;;740872;187;929015;-66
2022/10/18 00:12:31;;;;;;;11.50;8.32;;;;;;;;;;744592;186;916770;-60
2022/10/18 00:14:57;;;;;;;13.40;9.00;;;;;;;;;;751199;186;918439;-64
2022/10/18 00:17:23;;;;;;;14.93;9.03;;;;;;;;;;744257;186;919235;-59
2022/10/18 00:19:49;;;;;;;12.40;9.23;;;;;;;;;;742282;187;921910;-65
2022/10/18 00:22:15;;;;;;;12.00;8.60;;;;;;;;;;748845;185;918287;-60
2022/10/18 00:24:40;;;;;;;16.13;9.40;;;;;;;;;;742351;185;918678;-60
2022/10/18 00:27:06;;;;;;;10.40;7.90;;;;;;;;;;741794;187;919215;-59
2022/10/18 00:29:32;;;;;;;14.67;10.40;;;;;;;;;;748523;186;918997;-59
2022/10/18 00:31:58;;;;;;;12.60;7.77;;;;;;;;;;744635;186;918501;-66
2022/10/18 00:34:24;;;;;;;12.73;9.33;;;;;;;;;;743733;187;913868;-59
2022/10/18 00:36:50;;;;;;;12.20;9.30;;;;;;;;;;746876;187;907391;-59
2022/10/18 00:39:15;;;;;;;16.13;8.60;;;;;;;;;;742273;187;909026;-65
2022/10/18 00:41:41;;;;;;;10.60;8.23;;;;;;;;;;741257;187;919198;-65
2022/10/18 00:44:25;;;;;;;15.00;9.13;;;;;;;;;;744092;185;914547;-59
2022/10/18 00:46:51;;;;;;;10.77;8.67;;;;;;;;;;738440;185;913836;-61
2022/10/18 00:49:17;;;;;;;14.37;9.27;;;;;;;;;;749475;186;913701;-60
2022/10/18 00:51:43;;;;;;;9.53;7.97;;;;;;;;;;743802;187;882982;-61
2022/10/18 00:54:09;;;;;;;12.77;8.63;;;;;;;;;;742482;187;914305;-61
2022/10/18 00:56:35;;;;;;;11.77;8.67;;;;;;;;;;746939;185;813306;-60
2022/10/18 00:59:01;;;;;;;12.73;9.70;;;;;;;;;;740828;186;919307;-61
2022/10/18 01:01:27;;;;;;;12.10;7.87;;;;;;;;;;742214;187;910319;-66
2022/10/18 01:03:52;;;;;;;13.47;8.87;;;;;;;;;;747626;187;916250;-67
2022/10/18 01:06:18;;;;;;;13.03;9.50;;;;;;;;;;741106;185;918302;-60
2022/10/18 01:08:45;;;;;;;11.50;8.47;;;;;;;;;;741088;186;1006029;-61
2022/10/18 01:11:21;;;;;;;10.33;8.30;;;;;;;;;;741121;187;917962;-60
2022/10/18 01:14:02;;;;;;;15.60;8.50;;;;;;;;;;746366;187;918957;-66
2022/10/18 01:16:32;;;;;;;11.37;9.20;;;;;;;;;;750773;187;918006;-60
2022/10/18 01:18:58;;;;;;;12.17;9.37;;;;;;;;;;752587;187;816738;-67
2022/10/18 01:21:34;;;;;;;11.27;8.47;;;;;;;;;;740348;187;919490;-67
2022/10/18 01:24:06;;;;;;;10.63;8.63;;;;;;;;;;739145;187;922309;-60
2022/10/18 01:26:32;;;;;;;12.77;8.40;;;;;;;;;;744873;186;919000;-60
2022/10/18 01:29:16;;;;;;;12.25;9.10;;;;;;;;;;748994;185;821696;-67
2022/10/18 01:31:47;;;;;;;9.97;7.33;;;;;;;;;;748765;184;815457;-66
2022/10/18 01:34:13;;;;;;;12.90;7.43;;;;;;;;;;740858;186;917736;-66
2022/10/18 01:36:39;;;;;;;16.27;8.73;;;;;;;;;;743297;185;918883;-65
2022/10/18 01:39:05;;;;;;;11.67;8.10;;;;;;;;;;741802;186;912246;-60
2022/10/18 01:41:31;;;;;;;10.23;7.80;;;;;;;;;;746540;187;919230;-65
2022/10/18 01:43:57;;;;;;;12.47;8.77;;;;;;;;;;740982;186;917334;-60
2022/10/18 01:46:23;;;;;;;12.23;8.53;;;;;;;;;;742357;186;816014;-66
2022/10/18 01:48:48;;;;;;;19.47;8.70;;;;;;;;;;751384;185;914290;-60
2022/10/18 01:51:14;;;;;;;13.33;7.93;;;;;;;;;;745784;186;828293;-60
2022/10/18 01:53:40;;;;;;;12.60;9.40;;;;;;;;;;742774;187;850795;-60
2022/10/18 01:56:21;;;;;;;13.10;7.43;;;;;;;;;;747058;187;916632;-65
2022/10/18 01:59:02;;;;;;;10.70;7.70;;;;;;;;;;747821;185;655760;-60
2022/10/18 02:01:37;;;;;;;9.20;7.53;;;;;;;;;;754490;186;628642;-60
2022/10/18 02:04:03;;;;;;;11.80;7.70;;;;;;;;;;747688;186;919550;-65
2022/10/18 02:06:29;;;;;;;15.07;7.07;;;;;;;;;;743180;187;918258;-65
2022/10/18 02:08:56;;;;;;;9.93;6.60;;;;;;;;;;742520;187;918912;-60
2022/10/18 02:11:21;;;;;;;15.70;8.03;;;;;;;;;;747764;187;918036;-60
2022/10/18 02:13:47;;;;;;;9.97;7.60;;;;;;;;;;744592;187;917018;-65
2022/10/18 02:16:13;;;;;;;17.13;8.70;;;;;;;;;;742688;187;919519;-64
2022/10/18 02:18:39;;;;;;;13.25;8.75;;;;;;;;;;745952;186;919615;-66
2022/10/18 02:21:06;;;;;;;14.27;9.40;;;;;;;;;;742121;185;919062;-60
2022/10/18 02:23:32;;;;;;;13.20;9.28;;;;;;;;;;742115;187;915053;-60
2022/10/18 02:25:57;;;;;;;12.97;8.77;;;;;;;;;;740427;187;918300;-60
2022/10/18 02:28:23;;;;;;;13.03;9.47;;;;;;;;;;744291;185;854830;-65
2022/10/18 02:30:51;;;;;;;10.17;8.73;;;;;;;;;;746107;187;918334;-61
2022/10/18 02:33:17;;;;;;;15.63;9.03;;;;;;;;;;743537;187;925683;-65
2022/10/18 02:35:44;;;;;;;16.67;9.05;;;;;;;;;;747228;186;816686;-66
2022/10/18 02:38:09;;;;;;;10.80;8.27;;;;;;;;;;747130;186;919100;-60
2022/10/18 02:40:35;;;;;;;9.47;6.53;;;;;;;;;;744543;186;919062;-60
2022/10/18 02:43:01;;;;;;;11.33;7.70;;;;;;;;;;750308;186;815855;-60
2022/10/18 02:45:27;;;;;;;11.03;7.03;;;;;;;;;;741428;185;891899;-65
2022/10/18 02:47:53;;;;;;;11.65;8.60;;;;;;;;;;741940;185;918561;-65
2022/10/18 02:50:19;;;;;;;16.73;8.67;;;;;;;;;;747479;188;637424;-60
2022/10/18 02:52:44;;;;;;;11.10;7.90;;;;;;;;;;751077;186;918098;-66
2022/10/18 02:55:10;;;;;;;11.90;8.10;;;;;;;;;;744377;186;917386;-66
2022/10/18 02:57:36;;;;;;;10.10;7.70;;;;;;;;;;738544;186;920175;-64
2022/10/18 03:00:02;;;;;;;14.52;8.20;;;;;;;;;;749382;187;919432;-58
2022/10/18 03:02:28;;;;;;;10.53;7.40;;;;;;;;;;744266;186;918602;-59
2022/10/18 03:04:54;;;;;;;16.97;8.40;;;;;;;;;;744523;185;919085;-64
2022/10/18 03:07:19;;;;;;;11.20;7.50;;;;;;;;;;748903;186;918745;-60
2022/10/18 03:09:45;;;;;;;11.20;7.00;;;;;;;;;;743931;186;919087;-65
2022/10/18 03:12:11;;;;;;;12.65;8.35;;;;;;;;;;742215;186;822999;-59
2022/10/18 03:14:37;;;;;;;12.30;8.93;;;;;;;;;;743610;187;891458;-60
2022/10/18 03:17:03;;;;;;;9.57;7.10;;;;;;;;;;746147;186;923432;-65
2022/10/18 03:19:29;;;;;;;10.77;7.77;;;;;;;;;;743580;186;912009;-64
2022/10/18 03:21:55;;;;;;;9.67;7.80;;;;;;;;;;742684;187;919523;-64
2022/10/18 03:24:20;;;;;;;13.25;8.20;;;;;;;;;;749589;185;917745;-65
2022/10/18 03:26:46;;;;;;;14.83;9.57;;;;;;;;;;743375;184;917919;-64
2022/10/18 03:29:12;;;;;;;11.70;8.00;;;;;;;;;;744518;186;918952;-64
2022/10/18 03:31:38;;;;;;;14.00;7.53;;;;;;;;;;746462;187;918438;-64
2022/10/18 03:34:04;;;;;;;14.83;7.77;;;;;;;;;;742021;186;861845;-64
2022/10/18 03:36:30;;;;;;;9.53;8.13;;;;;;;;;;740881;186;921782;-58
2022/10/18 03:38:56;;;;;;;10.67;7.57;;;;;;;;;;748457;186;816860;-60
2022/10/18 03:41:21;;;;;;;13.07;6.70;;;;;;;;;;741223;187;917220;-59
2022/10/18 03:43:47;;;;;;;16.55;9.13;;;;;;;;;;741431;184;919237;-65
2022/10/18 03:46:13;;;;;;;12.00;8.17;;;;;;;;;;740870;186;937948;-64
2022/10/18 03:48:39;;;;;;;11.67;8.10;;;;;;;;;;748091;184;915471;-65
2022/10/18 03:51:05;;;;;;;10.90;8.30;;;;;;;;;;744913;186;916824;-64
2022/10/18 03:53:31;;;;;;;12.13;8.13;;;;;;;;;;743552;186;920491;-64
2022/10/18 03:55:56;;;;;;;11.13;7.30;;;;;;;;;;747689;186;916702;-59
2022/10/18 03:58:22;;;;;;;13.63;8.13;;;;;;;;;;736929;185;940535;-63
2022/10/18 04:00:48;;;;;;;11.17;7.87;;;;;;;;;;738575;187;922500;-61
2022/10/18 04:03:14;;;;;;;8.73;7.17;;;;;;;;;;745666;187;920357;-58
2022/10/18 04:05:40;;;;;;;9.50;7.30;;;;;;;;;;742045;185;921779;-65
2022/10/18 04:08:06;;;;;;;10.60;8.30;;;;;;;;;;742794;185;918924;-57
2022/10/18 04:10:32;;;;;;;11.10;8.00;;;;;;;;;;744228;187;919403;-59
2022/10/18 04:12:57;;;;;;;14.27;6.90;;;;;;;;;;743209;186;815983;-59
2022/10/18 04:15:23;;;;;;;17.63;10.30;;;;;;;;;;744600;187;918259;-64
2022/10/18 04:17:49;;;;;;;11.57;8.73;;;;;;;;;;743279;187;877412;-65
2022/10/18 04:20:15;;;;;;;12.77;8.63;;;;;;;;;;748182;186;918572;-65
2022/10/18 04:22:41;;;;;;;10.50;8.32;;;;;;;;;;741321;187;919113;-59
2022/10/18 04:25:07;;;;;;;9.33;7.83;;;;;;;;;;741975;187;918515;-57
2022/10/18 04:27:33;;;;;;;12.63;8.03;;;;;;;;;;747535;187;919074;-64
2022/10/18 04:29:59;;;;;;;11.47;7.80;;;;;;;;;;742896;186;923207;-63
2022/10/18 04:32:27;;;;;;;11.73;7.97;;;;;;;;;;744026;187;918632;-58
2022/10/18 04:34:51;;;;;;;17.30;7.97;;;;;;;;;;741213;187;919509;-59
2022/10/18 04:37:17;;;;;;;7.63;6.57;;;;;;;;;;745822;185;819275;-64
2022/10/18 04:39:47;;;;;;;9.13;7.30;;;;;;;;;;741703;187;918322;-59
2022/10/18 04:42:09;;;;;;;8.93;7.90;;;;;;;;;;740928;187;918207;-59
2022/10/18 04:44:34;;;;;;;13.53;7.90;;;;;;;;;;745964;187;922447;-59
2022/10/18 04:47:00;;;;;;;9.63;6.53;;;;;;;;;;741260;186;915811;-64
2022/10/18 04:49:26;;;;;;;11.80;7.90;;;;;;;;;;743775;184;899958;-64
2022/10/18 04:51:52;;;;;;;11.73;8.60;;;;;;;;;;748540;186;818563;-59
2022/10/18 04:54:18;;;;;;;7.37;5.77;;;;;;;;;;747454;186;918913;-59
2022/10/18 04:56:44;;;;;;;9.90;6.83;;;;;;;;;;739026;186;916612;-59
2022/10/18 04:59:09;;;;;;;8.50;6.10;;;;;;;;;;747276;186;916809;-64
2022/10/18 05:01:35;;;;;;;10.63;7.07;;;;;;;;;;746154;184;812574;-59
2022/10/18 05:04:01;;;;;;;8.20;6.80;;;;;;;;;;745023;185;827968;-59
2022/10/18 05:06:27;;;;;;;10.23;7.27;;;;;;;;;;743148;186;921407;-59
2022/10/18 05:08:53;;;;;;;9.83;7.30;;;;;;;;;;747086;185;819216;-63
2022/10/18 05:11:19;;;;;;;9.05;7.07;;;;;;;;;;742814;185;911359;-63
2022/10/18 05:13:44;;;;;;;8.20;6.87;;;;;;;;;;744386;185;912297;-63
2022/10/18 05:16:10;;;;;;;8.40;6.60;;;;;;;;;;749252;187;916016;-59
2022/10/18 05:18:36;;;;;;;13.13;8.00;;;;;;;;;;745517;186;910562;-64
2022/10/18 05:21:02;;;;;;;11.57;8.53;;;;;;;;;;743820;186;922020;-58
2022/10/18 05:23:28;;;;;;;13.60;8.47;;;;;;;;;;748123;187;918416;-64
2022/10/18 05:25:54;;;;;;;10.30;7.87;;;;;;;;;;736020;188;916980;-64
2022/10/18 05:28:19;;;;;;;10.60;8.17;;;;;;;;;;747128;186;918860;-64
2022/10/18 05:30:45;;;;;;;9.37;7.03;;;;;;;;;;745910;186;814875;-64
2022/10/18 05:33:11;;;;;;;9.30;7.53;;;;;;;;;;747291;186;820292;-59
2022/10/18 05:35:37;;;;;;;8.20;6.30;;;;;;;;;;743199;186;918081;-60
2022/10/18 05:38:03;;;;;;;10.63;7.63;;;;;;;;;;743563;187;814048;-63
2022/10/18 05:40:29;;;;;;;8.87;7.13;;;;;;;;;;746971;187;913071;-64
2022/10/18 05:42:55;;;;;;;9.00;7.33;;;;;;;;;;743593;187;918602;-59
2022/10/18 05:45:20;;;;;;;10.67;7.53;;;;;;;;;;743505;187;913963;-64
2022/10/18 05:47:46;;;;;;;10.50;7.07;;;;;;;;;;749185;187;915806;-64
2022/10/18 05:50:12;;;;;;;9.97;7.30;;;;;;;;;;739672;187;918583;-59
2022/10/18 05:52:38;;;;;;;10.53;8.33;;;;;;;;;;739788;186;916439;-64
2022/10/18 05:55:04;;;;;;;14.23;7.72;;;;;;;;;;741899;187;917915;-64
2022/10/18 05:57:31;;;;;;;11.73;7.87;;;;;;;;;;750816;186;918152;-59
2022/10/18 05:59:56;;;;;;;13.90;9.37;;;;;;;;;;740772;185;918915;-58
2022/10/18 06:02:22;;;;;;;16.90;10.10;;;;;;;;;;742043;184;873485;-64
2022/10/18 06:04:48;;;;;;;12.93;9.20;;;;;;;;;;747162;187;919189;-58
2022/10/18 06:07:14;;;;;;;12.40;7.73;;;;;;;;;;743869;185;919387;-64
2022/10/18 06:09:40;;;;;;;9.60;8.10;;;;;;;;;;744251;184;914629;-65
2022/10/18 06:12:07;;;;;;;8.90;7.30;;;;;;;;;;746699;186;914625;-59
2022/10/18 06:14:31;;;;;;;10.53;7.83;;;;;;;;;;740324;187;1736990;-59
2022/10/18 06:16:57;;;;;;;13.00;9.55;;;;;;;;;;736736;187;922221;-65
2022/10/18 06:19:23;;;;;;;13.63;10.60;;;;;;;;;;749285;187;915092;-64
2022/10/18 06:21:49;;;;;;;15.37;10.73;;;;;;;;;;741805;187;916781;-59
2022/10/18 06:24:14;;;;;;;19.83;12.17;;;;;;;;;;742001;185;922847;-60
2022/10/18 06:26:40;;;;;;;15.17;11.40;;;;;;;;;;745174;186;901590;-60
2022/10/18 06:29:06;;;;;;;16.48;11.73;;;;;;;;;;751469;187;918306;-59
2022/10/18 06:31:32;;;;;;;15.10;11.77;;;;;;;;;;741735;187;919057;-60
2022/10/18 06:33:58;;;;;;;18.60;12.40;;;;;;;;;;746599;184;918454;-59
2022/10/18 06:36:24;;;;;;;14.47;11.97;;;;;;;;;;748830;187;886949;-60
2022/10/18 06:38:50;;;;;;;16.40;12.70;;;;;;;;;;744250;186;909685;-65
2022/10/18 06:41:16;;;;;;;18.17;13.50;;;;;;;;;;739786;184;923947;-66
2022/10/18 06:43:43;;;;;;;16.80;13.47;;;;;;;;;;748512;186;919125;-60
2022/10/18 06:46:08;;;;;;;21.40;14.90;;;;;;;;;;741383;186;923169;-65
2022/10/18 06:48:34;;;;;;;25.73;16.10;;;;;;;;;;745197;186;918866;-66
2022/10/18 06:51:00;;;;;;;23.55;16.20;;;;;;;;;;742183;187;918225;-65
2022/10/18 06:53:25;;;;;;;21.60;16.07;;;;;;;;;;749185;187;818533;-65
2022/10/18 06:55:51;;;;;;;20.53;16.53;;;;;;;;;;744149;185;921460;-66
2022/10/18 06:58:17;;;;;;;35.37;18.10;;;;;;;;;;744002;186;920923;-60
2022/10/18 07:00:44;;;;;;;18.60;14.07;;;;;;;;;;748125;187;820487;-65
2022/10/18 07:03:09;;;;;;;18.47;14.70;;;;;;;;;;743524;185;821444;-66
2022/10/18 07:05:35;;;;;;;22.77;14.33;;;;;;;;;;742099;187;918820;-66
2022/10/18 07:08:01;;;;;;;17.43;13.20;;;;;;;;;;745699;187;909913;-66
2022/10/18 07:10:26;;;;;;;27.13;12.23;;;;;;;;;;741783;187;917801;-59
2022/10/18 07:12:52;;;;;;;23.80;13.30;;;;;;;;;;742254;187;913984;-66
2022/10/18 07:15:21;;;;;;;13.97;12.20;;;;;;;;;;742719;186;919543;-61
2022/10/18 07:17:44;;;;;;;17.80;13.30;;;;;;;;;;745899;188;816688;-66
2022/10/18 07:20:10;;;;;;;17.07;11.97;;;;;;;;;;740458;187;816722;-67
2022/10/18 07:22:37;;;;;;;15.48;13.02;;;;;;;;;;741916;187;918862;-61
2022/10/18 07:25:02;;;;;;;20.63;13.27;;;;;;;;;;751342;186;854642;-67
2022/10/18 07:27:28;;;;;;;16.20;12.17;;;;;;;;;;745588;186;918579;-61
2022/10/18 07:29:54;;;;;;;15.57;11.80;;;;;;;;;;743224;187;922632;-67
2022/10/18 07:32:20;;;;;;;14.35;10.25;;;;;;;;;;746282;187;918831;-66
2022/10/18 07:34:46;;;;;;;18.87;10.30;;;;;;;;;;739222;186;919184;-60
2022/10/18 07:37:12;;;;;;;14.73;9.40;;;;;;;;;;741661;188;918590;-61
2022/10/18 07:39:37;;;;;;;12.57;8.00;;;;;;;;;;747184;187;918289;-60
2022/10/18 07:42:03;;;;;;;11.57;8.10;;;;;;;;;;745991;186;918670;-58
2022/10/18 07:44:29;;;;;;;10.37;7.63;;;;;;;;;;741059;185;919311;-60
2022/10/18 07:46:55;;;;;;;11.20;6.30;;;;;;;;;;745754;186;910177;-60
2022/10/18 07:49:21;;;;;;;9.37;7.23;;;;;;;;;;748719;186;823767;-60
2022/10/18 07:51:47;;;;;;;16.33;7.07;;;;;;;;;;742719;187;914452;-67
2022/10/18 07:54:12;;;;;;;10.63;6.50;;;;;;;;;;741255;187;918755;-60
2022/10/18 07:56:38;;;;;;;11.50;6.90;;;;;;;;;;747983;186;919088;-68
2022/10/18 07:59:04;;;;;;;8.70;7.00;;;;;;;;;;743657;186;914263;-68
2022/10/18 08:01:30;;;;;;;8.90;7.00;;;;;;;;;;746304;187;919087;-60
2022/10/18 08:03:57;;;;;;;10.50;7.70;;;;;;;;;;746064;186;816054;-70
2022/10/18 08:06:22;;;;;;;11.33;7.43;;;;;;;;;;746031;186;916440;-60
2022/10/18 08:08:48;;;;;;;8.40;6.77;;;;;;;;;;741386;187;920055;-60
2022/10/18 08:11:13;;;;;;;9.90;7.80;;;;;;;;;;741002;187;919864;-67
2022/10/18 08:13:39;;;;;;;11.10;7.10;;;;;;;;;;746697;186;817846;-62
2022/10/18 08:16:06;;;;;;;13.73;7.43;;;;;;;;;;741207;185;923269;-60
2022/10/18 08:18:32;;;;;;;11.80;7.50;;;;;;;;;;744052;186;919984;-68
2022/10/18 08:20:58;;;;;;;17.20;8.63;;;;;;;;;;750628;187;849914;-60
2022/10/18 08:23:24;;;;;;;13.40;8.80;;;;;;;;;;743415;187;918421;-67
2022/10/18 08:25:50;;;;;;;13.27;8.10;;;;;;;;;;742477;185;919343;-59
2022/10/18 08:28:16;;;;;;;14.07;8.90;;;;;;;;;;745697;187;919054;-68
2022/10/18 08:30:41;;;;;;;13.87;9.03;;;;;;;;;;742790;184;918746;-68
2022/10/18 08:33:07;;;;;;;11.40;8.43;;;;;;;;;;741099;186;919322;-59
2022/10/18 08:35:33;;;;;;;13.43;9.43;;;;;;;;;;744453;186;924751;-68
2022/10/18 08:37:59;;;;;;;10.90;8.93;;;;;;;;;;749867;185;815783;-68
2022/10/18 08:40:26;;;;;;;15.70;8.73;;;;;;;;;;745776;184;844820;-58
2022/10/18 08:42:57;;;;;;;19.83;10.67;;;;;;;;;;742996;185;923023;-59
2022/10/18 08:45:23;;;;;;;11.87;9.30;;;;;;;;;;749183;186;816663;-70
2022/10/18 08:47:50;;;;;;;13.60;8.33;;;;;;;;;;745300;184;815492;-69
2022/10/18 08:50:15;;;;;;;13.62;7.30;;;;;;;;;;744429;184;918214;-70
2022/10/18 08:52:42;;;;;;;12.10;8.10;;;;;;;;;;743199;186;919199;-68
2022/10/18 08:55:08;;;;;;;11.00;7.90;;;;;;;;;;752642;186;917320;-69
2022/10/18 08:57:34;;;;;;;11.43;7.33;;;;;;;;;;742927;186;929311;-59
2022/10/18 09:00:00;;;;;;;8.73;7.10;;;;;;;;;;743299;186;927756;-69
2022/10/18 09:02:41;;;;;;;8.90;7.17;;;;;;;;;;746260;186;919880;-61
2022/10/18 09:05:21;;;;;;;11.97;7.83;;;;;;;;;;749952;186;895433;-59
2022/10/18 09:07:50;;;;;;;10.50;8.03;;;;;;;;;;751079;186;900944;-59
2022/10/18 09:10:14;;;;;;;14.40;7.63;;;;;;;;;;739252;185;913305;-61
2022/10/18 09:12:46;;;;;;;12.17;7.00;;;;;;;;;;729697;187;912818;-59
2022/10/18 09:15:15;;;;;;;10.18;7.43;;;;;;;;;;744919;186;1015916;-67
2022/10/18 09:17:47;;;;;;;10.63;7.87;;;;;;;;;;743515;186;921822;-61
2022/10/18 09:20:12;;;;;;;12.27;9.33;;;;;;;;;;738331;186;819747;-60
2022/10/18 09:22:53;;;;;;;11.60;7.87;;;;;;;;;;741586;187;913634;-69
2022/10/18 09:25:19;;;;;;;17.90;7.97;;;;;;;;;;739555;187;811432;-60
2022/10/18 09:27:54;;;;;;;10.70;8.10;;;;;;;;;;747654;184;914172;-67
2022/10/18 09:30:21;;;;;;;10.47;7.80;;;;;;;;;;749352;186;918807;-68
2022/10/18 09:32:48;;;;;;;14.20;9.30;;;;;;;;;;739872;187;917151;-59
2022/10/18 09:35:17;;;;;;;11.60;8.20;;;;;;;;;;741787;187;923699;-68
2022/10/18 09:37:43;;;;;;;9.18;6.65;;;;;;;;;;748575;187;916796;-68
2022/10/18 09:40:12;;;;;;;11.17;8.30;;;;;;;;;;746372;187;861094;-59
2022/10/18 09:42:39;;;;;;;12.47;8.17;;;;;;;;;;746037;187;910578;-58
2022/10/18 09:45:05;;;;;;;13.17;7.73;;;;;;;;;;747354;187;809667;-68
2022/10/18 09:47:32;;;;;;;10.50;7.93;;;;;;;;;;748636;186;920190;-69
2022/10/18 09:49:58;;;;;;;12.37;8.67;;;;;;;;;;746879;186;919073;-68
2022/10/18 09:52:24;;;;;;;19.40;8.90;;;;;;;;;;745816;186;915223;-59
2022/10/18 09:54:50;;;;;;;14.00;9.23;;;;;;;;;;749096;186;920359;-58
2022/10/18 09:57:17;;;;;;;12.60;9.10;;;;;;;;;;747952;186;616265;-59
2022/10/18 09:59:43;;;;;;;11.20;8.20;;;;;;;;;;739192;187;920454;-67
2022/10/18 10:02:09;;;;;;;16.07;9.13;;;;;;;;;;744093;187;929362;-59
2022/10/18 10:04:35;;;;;;;12.87;10.33;;;;;;;;;;747265;187;817039;-69
2022/10/18 10:07:01;;;;;;;11.40;8.80;;;;;;;;;;743747;187;918698;-59
2022/10/18 10:09:28;;;;;;;11.00;8.00;;;;;;;;;;744823;187;818609;-68
2022/10/18 10:11:54;;;;;;;14.30;8.50;;;;;;;;;;750612;187;926760;-59
2022/10/18 10:14:22;;;;;;;12.30;9.57;;;;;;;;;;740257;187;921707;-59
2022/10/18 10:16:53;;;;;;;13.40;8.63;;;;;;;;;;742047;187;921208;-69
2022/10/18 10:19:19;;;;;;;11.03;8.70;;;;;;;;;;746332;185;931517;-59
2022/10/18 10:21:45;;;;;;;14.43;8.10;;;;;;;;;;741028;189;915836;-60
2022/10/18 10:24:29;;;;;;;14.20;7.13;;;;;;;;;;739325;186;914115;-67
2022/10/18 10:26:57;;;;;;;11.33;7.80;;;;;;;;;;749387;185;918988;-60
2022/10/18 10:29:29;;;;;;;11.90;6.80;;;;;;;;;;740314;184;919308;-59
2022/10/18 10:31:58;;;;;;;10.70;8.33;;;;;;;;;;741906;187;919256;-68
2022/10/18 10:34:26;;;;;;;12.60;8.77;;;;;;;;;;747124;187;918105;-60
2022/10/18 10:36:50;;;;;;;17.40;7.83;;;;;;;;;;747435;185;917942;-69
2022/10/18 10:39:17;;;;;;;11.38;8.13;;;;;;;;;;744963;186;918322;-60
2022/10/18 10:41:42;;;;;;;11.17;7.70;;;;;;;;;;748083;187;918691;-69
2022/10/18 10:44:15;;;;;;;11.53;7.67;;;;;;;;;;742892;186;915479;-70
2022/10/18 10:46:40;;;;;;;11.00;7.47;;;;;;;;;;744314;187;917881;-68
2022/10/18 10:49:06;;;;;;;14.00;8.00;;;;;;;;;;746064;187;913604;-60
2022/10/18 10:51:32;;;;;;;10.53;7.70;;;;;;;;;;743951;185;919461;-62
2022/10/18 10:53:58;;;;;;;21.60;8.93;;;;;;;;;;740524;187;918837;-69
2022/10/18 10:56:26;;;;;;;16.30;8.27;;;;;;;;;;746628;185;816298;-69
2022/10/18 10:58:52;;;;;;;18.08;7.80;;;;;;;;;;746406;185;918926;-66
2022/10/18 11:01:19;;;;;;;11.30;8.03;;;;;;;;;;754550;185;919087;-69
2022/10/18 11:03:45;;;;;;;15.90;8.03;;;;;;;;;;741728;186;922953;-59
2022/10/18 11:06:10;;;;;;;11.53;8.00;;;;;;;;;;742413;186;921734;-60
2022/10/18 11:08:36;;;;;;;15.57;8.90;;;;;;;;;;746062;187;816725;-60
2022/10/18 11:11:02;;;;;;;16.20;7.90;;;;;;;;;;743164;187;918166;-69
2022/10/18 11:13:28;;;;;;;12.93;8.70;;;;;;;;;;742467;186;921957;-70
2022/10/18 11:15:58;;;;;;;14.70;8.60;;;;;;;;;;738339;190;918755;-60
2022/10/18 11:18:27;;;;;;;12.13;7.03;;;;;;;;;;739666;187;919794;-60
2022/10/18 11:20:54;;;;;;;15.83;7.50;;;;;;;;;;742882;187;918862;-60
2022/10/18 11:23:20;;;;;;;27.70;7.83;;;;;;;;;;739970;186;911457;-69
2022/10/18 11:25:51;;;;;;;11.33;7.33;;;;;;;;;;750614;187;919056;-69
2022/10/18 11:28:21;;;;;;;11.33;7.90;;;;;;;;;;744981;187;918961;-69
2022/10/18 11:30:48;;;;;;;14.95;8.85;;;;;;;;;;745455;187;884746;-60
2022/10/18 11:33:15;;;;;;;9.67;7.07;;;;;;;;;;743435;187;910568;-68
2022/10/18 11:35:43;;;;;;;11.83;7.03;;;;;;;;;;741899;186;888462;-60
2022/10/18 11:38:09;;;;;;;12.90;7.17;;;;;;;;;;738167;184;921858;-60
2022/10/18 11:40:38;;;;;;;13.17;7.53;;;;;;;;;;741675;187;812986;-67
2022/10/18 11:43:04;;;;;;;10.87;7.13;;;;;;;;;;741891;185;1017833;-67
2022/10/18 11:45:37;;;;;;;9.60;7.83;;;;;;;;;;750163;185;818049;-59
2022/10/18 11:48:04;;;;;;;11.53;7.07;;;;;;;;;;737415;186;918626;-58
2022/10/18 11:50:36;;;;;;;8.80;7.00;;;;;;;;;;743660;187;816217;-58
2022/10/18 11:53:02;;;;;;;12.93;8.02;;;;;;;;;;742748;186;917336;-59
2022/10/18 11:55:33;;;;;;;11.00;7.67;;;;;;;;;;746965;187;819194;-67
2022/10/18 11:58:10;;;;;;;10.70;7.43;;;;;;;;;;741686;186;846571;-59
2022/10/18 12:00:39;;;;;;;11.10;7.07;;;;;;;;;;743618;185;816675;-59
2022/10/18 12:03:19;;;;;;;11.20;7.30;;;;;;;;;;739737;187;919004;-59
2022/10/18 12:05:45;;;;;;;10.83;6.50;;;;;;;;;;743141;187;919294;-58
2022/10/18 12:08:14;;;;;;;9.97;6.40;;;;;;;;;;747498;186;917505;-67
2022/10/18 12:10:40;;;;;;;9.87;6.57;;;;;;;;;;747611;185;894632;-67
2022/10/18 12:13:05;;;;;;;13.80;7.57;;;;;;;;;;743754;184;916880;-68
2022/10/18 12:15:31;;;;;;;13.23;7.00;;;;;;;;;;741547;187;919250;-66
2022/10/18 12:17:59;;;;;;;9.23;6.03;;;;;;;;;;745753;187;917716;-60
2022/10/18 12:20:42;;;;;;;13.13;6.97;;;;;;;;;;742791;186;918960;-66
2022/10/18 12:23:09;;;;;;;11.03;6.33;;;;;;;;;;743279;185;918282;-58
2022/10/18 12:25:35;;;;;;;10.80;6.60;;;;;;;;;;745668;187;819461;-67
2022/10/18 12:28:02;;;;;;;9.73;6.00;;;;;;;;;;749729;186;796985;-66
2022/10/18 12:30:28;;;;;;;9.60;6.73;;;;;;;;;;742724;184;817330;-59
2022/10/18 12:32:53;;;;;;;9.73;6.40;;;;;;;;;;741056;184;859593;-66
2022/10/18 12:35:19;;;;;;;8.90;7.40;;;;;;;;;;742571;184;919623;-59
2022/10/18 12:37:55;;;;;;;10.20;6.93;;;;;;;;;;749310;188;640407;-65
2022/10/18 12:40:24;;;;;;;11.53;6.67;;;;;;;;;;743155;187;624125;-67
2022/10/18 12:42:50;;;;;;;10.40;6.57;;;;;;;;;;743453;187;712442;-58
2022/10/18 12:45:18;;;;;;;13.93;6.80;;;;;;;;;;743155;185;894119;-65
2022/10/18 12:47:44;;;;;;;9.00;6.10;;;;;;;;;;745535;186;884227;-58
2022/10/18 12:50:16;;;;;;;9.30;7.03;;;;;;;;;;742924;185;934187;-66
2022/10/18 12:52:42;;;;;;;11.73;7.13;;;;;;;;;;740242;187;918931;-58
2022/10/18 12:55:24;;;;;;;7.13;5.70;;;;;;;;;;745961;187;913017;-66
2022/10/18 12:58:06;;;;;;;14.63;7.20;;;;;;;;;;744637;186;919469;-57
2022/10/18 13:00:47;;;;;;;11.17;7.00;;;;;;;;;;750889;184;919500;-66
2022/10/18 13:03:29;;;;;;;9.97;7.30;;;;;;;;;;749989;187;917441;-58
2022/10/18 13:05:54;;;;;;;9.50;6.40;;;;;;;;;;746532;186;918984;-65
2022/10/18 13:08:25;;;;;;;12.20;7.95;;;;;;;;;;736773;187;919318;-58
2022/10/18 13:10:51;;;;;;;10.37;6.50;;;;;;;;;;743211;186;918303;-58
2022/10/18 13:13:19;;;;;;;9.67;7.20;;;;;;;;;;739949;187;825477;-59
2022/10/18 13:15:46;;;;;;;9.53;6.63;;;;;;;;;;747123;187;918123;-57
2022/10/18 13:18:25;;;;;;;9.67;6.27;;;;;;;;;;744742;187;919115;-66
2022/10/18 13:20:55;;;;;;;11.27;8.00;;;;;;;;;;741534;185;921407;-65
2022/10/18 13:23:23;;;;;;;9.97;7.43;;;;;;;;;;745205;186;820530;-58
2022/10/18 13:25:55;;;;;;;9.33;7.00;;;;;;;;;;744513;186;839633;-58
2022/10/18 13:28:21;;;;;;;11.47;7.27;;;;;;;;;;747194;188;820655;-65
2022/10/18 13:30:47;;;;;;;8.53;7.60;;;;;;;;;;742264;186;818893;-58
2022/10/18 13:33:28;;;;;;;9.90;7.90;;;;;;;;;;742130;187;918559;-58
2022/10/18 13:35:54;;;;;;;11.10;8.20;;;;;;;;;;742093;186;918779;-66
2022/10/18 13:38:35;;;;;;;13.00;7.67;;;;;;;;;;748588;187;919667;-61
2022/10/18 13:41:01;;;;;;;11.80;7.70;;;;;;;;;;734370;187;920892;-58
2022/10/18 13:43:33;;;;;;;16.90;7.83;;;;;;;;;;747049;187;896673;-59
2022/10/18 13:45:59;;;;;;;15.33;7.60;;;;;;;;;;747276;186;915129;-66
2022/10/18 13:48:41;;;;;;;8.97;8.03;;;;;;;;;;741219;186;912598;-59
2022/10/18 13:51:22;;;;;;;11.57;7.47;;;;;;;;;;742352;187;919429;-65
2022/10/18 13:53:48;;;;;;;10.20;7.93;;;;;;;;;;741716;187;919711;-59
2022/10/18 13:56:34;;;;;;;13.13;6.90;;;;;;;;;;746528;187;918848;-59
2022/10/18 13:59:05;;;;;;;10.45;7.00;;;;;;;;;;745524;187;920287;-60
2022/10/18 14:01:31;;;;;;;11.60;7.30;;;;;;;;;;743333;186;919126;-61
2022/10/18 14:03:58;;;;;;;12.70;7.80;;;;;;;;;;741655;187;918831;-64
2022/10/18 14:06:24;;;;;;;9.00;7.00;;;;;;;;;;742531;187;1019818;-65
2022/10/18 14:08:53;;;;;;;14.30;7.83;;;;;;;;;;749150;186;816936;-64
2022/10/18 14:11:27;;;;;;;14.37;7.87;;;;;;;;;;739977;188;943870;-58
2022/10/18 14:13:57;;;;;;;16.70;8.13;;;;;;;;;;739988;187;919381;-65
2022/10/18 14:16:37;;;;;;;16.63;9.30;;;;;;;;;;742697;187;919277;-64
2022/10/18 14:19:09;;;;;;;9.07;7.70;;;;;;;;;;731397;186;919148;-59